Time;durP1;ratioP1;P1;durP2;ratioP2;P2;SDS_P1;SDS_P2;PMS_P1;PMS_P2;Temp;Humidity;BMP_temperature;BMP_pressure;BME280_temperature;BME280_humidity;BME280_pressure;Samples;Min_cycle;Max_cycle;Signal;HPM_P1;HPM_P2
2021/11/12 00:13:10;;;;;;;;;68.25;51.50;;;;;;;;5021769;28;45936;-72
2021/11/12 00:15:41;;;;;;;;;68.25;53.00;;;;;;;;5016541;28;45366;-72
2021/11/12 00:18:07;;;;;;;;;63.75;47.00;;;;;;;;5020340;28;45453;-73
2021/11/12 00:20:32;;;;;;;;;64.00;51.75;;;;;;;;5018870;28;47328;-73
2021/11/12 00:22:58;;;;;;;;;66.67;48.67;;;;;;;;5029854;28;45465;-72
2021/11/12 00:25:23;;;;;;;;;58.00;43.00;;;;;;;;5022062;28;45451;-72
2021/11/12 00:27:48;;;;;;;;;58.33;44.00;;;;;;;;5025213;28;45231;-72
2021/11/12 00:35:31;;;;;;;;;46.67;31.00;;;;;;;;5020450;28;45580;-72
2021/11/12 00:38:02;;;;;;;;;43.00;37.75;;;;;;;;5034568;28;45423;-73
2021/11/12 00:40:33;;;;;;;;;48.75;40.75;;;;;;;;5031602;28;46142;-72
2021/11/12 00:45:28;;;;;;;;;46.00;39.00;;;;;;;;5030700;28;45673;-72
2021/11/12 00:47:59;;;;;;;;;55.50;44.00;;;;;;;;5020157;28;45396;-72
2021/11/12 00:55:22;;;;;;;;;63.50;44.25;;;;;;;;5024663;28;45443;-72
2021/11/12 00:57:48;;;;;;;;;61.00;43.50;;;;;;;;5025286;28;45427;-72
2021/11/12 01:00:13;;;;;;;;;55.75;43.00;;;;;;;;5022873;28;46336;-72
2021/11/12 01:02:39;;;;;;;;;53.25;43.50;;;;;;;;5034250;28;45481;-73
2021/11/12 01:05:05;;;;;;;;;52.00;43.25;;;;;;;;5032743;28;45484;-72
2021/11/12 01:07:31;;;;;;;;;60.50;43.50;;;;;;;;5031583;28;45860;-72
2021/11/12 01:09:58;;;;;;;;;46.75;40.00;;;;;;;;5030432;28;46428;-72
2021/11/12 01:12:24;;;;;;;;;57.25;43.25;;;;;;;;5034649;28;45516;-72
2021/11/12 01:14:50;;;;;;;;;59.00;40.50;;;;;;;;5026197;28;45566;-72
2021/11/12 01:17:15;;;;;;;;;47.25;37.50;;;;;;;;5018220;28;45491;-72
2021/11/12 01:19:40;;;;;;;;;53.67;41.00;;;;;;;;5019631;28;45961;-72
2021/11/12 01:22:06;;;;;;;;;56.67;41.00;;;;;;;;5023956;28;45501;-72
2021/11/12 01:24:31;;;;;;;;;44.50;32.50;;;;;;;;5024502;28;45785;-73
2021/11/12 01:26:57;;;;;;;;;46.50;40.25;;;;;;;;5019897;28;45437;-72
2021/11/12 01:29:22;;;;;;;;;42.67;36.33;;;;;;;;5025949;28;45498;-72
2021/11/12 01:31:47;;;;;;;;;43.33;31.00;;;;;;;;5031861;28;45416;-72
2021/11/12 01:34:12;;;;;;;;;53.50;38.50;;;;;;;;5026866;28;45391;-72
2021/11/12 01:36:43;;;;;;;;;44.00;38.00;;;;;;;;5025049;28;45803;-72
2021/11/12 01:39:14;;;;;;;;;51.50;40.50;;;;;;;;5033185;28;45581;-72
2021/11/12 01:41:45;;;;;;;;;52.50;38.25;;;;;;;;5020716;28;45886;-72
2021/11/12 01:44:10;;;;;;;;;45.75;38.50;;;;;;;;5031674;28;45395;-72
2021/11/12 01:46:53;;;;;;;;;55.50;36.00;;;;;;;;5026051;28;45306;-72
2021/11/12 01:51:49;;;;;;;;;48.33;40.33;;;;;;;;5029056;28;45405;-72
2021/11/12 01:59:20;;;;;;;;;52.75;39.75;;;;;;;;5031915;28;45943;-72
2021/11/12 02:01:55;;;;;;;;;47.75;37.25;;;;;;;;5016192;28;45838;-72
2021/11/12 02:04:22;;;;;;;;;60.00;39.75;;;;;;;;5028808;28;45572;-72
2021/11/12 02:06:47;;;;;;;;;45.75;37.25;;;;;;;;5021310;28;45546;-72
2021/11/12 02:09:20;;;;;;;;;43.00;29.67;;;;;;;;5022106;28;46314;-72
2021/11/12 02:11:50;;;;;;;;;51.50;37.25;;;;;;;;5022360;28;45926;-72
2021/11/12 02:14:17;;;;;;;;;44.50;30.50;;;;;;;;5018468;28;45506;-73
2021/11/12 02:16:51;;;;;;;;;48.75;36.50;;;;;;;;5029332;28;45464;-72
2021/11/12 02:19:16;;;;;;;;;51.50;39.50;;;;;;;;5024535;28;45967;-72
2021/11/12 02:21:52;;;;;;;;;35.50;28.00;;;;;;;;5023606;28;45377;-72
2021/11/12 02:24:18;;;;;;;;;41.00;32.00;;;;;;;;5025092;28;45375;-72
2021/11/12 02:26:47;;;;;;;;;43.25;34.75;;;;;;;;5032368;28;45575;-72
2021/11/12 02:29:12;;;;;;;;;46.75;37.25;;;;;;;;5030231;28;45598;-73
2021/11/12 02:31:38;;;;;;;;;48.75;37.50;;;;;;;;5022162;28;45403;-72
2021/11/12 02:34:09;;;;;;;;;44.25;34.50;;;;;;;;5022920;28;45435;-72
2021/11/12 02:36:35;;;;;;;;;50.75;40.50;;;;;;;;5023083;28;45362;-72
2021/11/12 02:39:02;;;;;;;;;50.50;40.50;;;;;;;;5001660;28;46355;-72
2021/11/12 02:41:27;;;;;;;;;46.75;37.00;;;;;;;;5034622;28;45469;-72
2021/11/12 02:43:53;;;;;;;;;45.25;37.00;;;;;;;;5018405;28;45457;-72
2021/11/12 02:46:20;;;;;;;;;57.00;42.00;;;;;;;;5026251;28;45537;-72
2021/11/12 02:48:46;;;;;;;;;51.00;39.75;;;;;;;;5024228;28;45379;-72
2021/11/12 02:51:13;;;;;;;;;39.75;36.25;;;;;;;;5032930;28;45392;-72
2021/11/12 02:53:39;;;;;;;;;46.50;33.25;;;;;;;;5018080;28;45580;-72
2021/11/12 02:56:09;;;;;;;;;52.00;34.00;;;;;;;;5018071;28;45580;-72
2021/11/12 02:58:37;;;;;;;;;35.25;31.25;;;;;;;;5020976;28;47260;-72
2021/11/12 03:01:02;;;;;;;;;42.75;37.00;;;;;;;;5026347;28;45486;-72
2021/11/12 03:03:28;;;;;;;;;45.75;36.75;;;;;;;;5027900;28;45902;-72
2021/11/12 03:05:53;;;;;;;;;43.25;30.25;;;;;;;;5021376;28;45344;-72
2021/11/12 03:08:19;;;;;;;;;52.00;37.67;;;;;;;;5017520;28;45525;-72
2021/11/12 03:10:44;;;;;;;;;42.67;32.00;;;;;;;;5021234;28;45442;-72
2021/11/12 03:13:09;;;;;;;;;50.25;34.75;;;;;;;;5022225;28;45478;-72
2021/11/12 03:15:35;;;;;;;;;53.00;35.50;;;;;;;;5023225;28;45655;-73
2021/11/12 03:18:00;;;;;;;;;49.25;38.25;;;;;;;;5035502;28;47275;-72
2021/11/12 03:20:28;;;;;;;;;38.33;31.67;;;;;;;;5038497;28;45741;-73
2021/11/12 03:22:58;;;;;;;;;44.25;31.75;;;;;;;;5020855;28;45505;-72
2021/11/12 03:25:30;;;;;;;;;47.00;36.25;;;;;;;;5029660;28;45544;-72
2021/11/12 03:47:14;;;;;;;;;46.25;32.75;;;;;;;;5031582;28;45501;-72
2021/11/12 04:00:35;;;;;;;;;37.75;29.00;;;;;;;;5031209;28;45524;-72
2021/11/12 05:56:17;;;;;;;;;24.50;20.00;;;;;;;;5018226;28;45610;-73
2021/11/12 05:58:42;;;;;;;;;26.00;17.67;;;;;;;;5022303;28;46170;-73
2021/11/12 06:01:07;;;;;;;;;23.67;17.33;;;;;;;;5022471;28;45574;-72
2021/11/12 06:03:32;;;;;;;;;23.67;15.67;;;;;;;;5025038;28;45439;-72
2021/11/12 06:05:58;;;;;;;;;21.33;16.67;;;;;;;;5028182;28;45375;-73
2021/11/12 06:08:23;;;;;;;;;17.33;14.00;;;;;;;;5019718;28;47220;-73
2021/11/12 06:10:48;;;;;;;;;18.00;10.00;;;;;;;;5020483;28;45374;-73
2021/11/12 06:13:13;;;;;;;;;18.67;14.33;;;;;;;;5019050;28;45359;-73
2021/11/12 06:15:39;;;;;;;;;13.33;11.00;;;;;;;;5023877;28;45311;-73
2021/11/12 06:18:06;;;;;;;;;18.00;12.50;;;;;;;;5023040;28;46274;-73
2021/11/12 06:20:31;;;;;;;;;25.50;15.00;;;;;;;;5033854;28;46058;-73
2021/11/12 06:22:56;;;;;;;;;22.67;14.33;;;;;;;;5015058;28;45312;-73
2021/11/12 06:25:22;;;;;;;;;13.67;13.67;;;;;;;;5026284;28;45526;-73
2021/11/12 06:27:48;;;;;;;;;19.33;12.00;;;;;;;;5022537;28;45463;-72
2021/11/12 06:30:13;;;;;;;;;21.50;17.00;;;;;;;;5025281;28;46034;-72
2021/11/12 06:32:39;;;;;;;;;20.67;14.00;;;;;;;;5029817;28;45319;-73
2021/11/12 06:35:04;;;;;;;;;18.25;15.75;;;;;;;;5015020;28;45525;-73
2021/11/12 06:37:30;;;;;;;;;21.75;14.00;;;;;;;;5030115;28;45405;-73
2021/11/12 06:39:55;;;;;;;;;21.00;15.25;;;;;;;;5029845;28;45610;-73
2021/11/12 06:42:23;;;;;;;;;18.25;13.50;;;;;;;;5032303;28;45490;-72
2021/11/12 06:50:13;;;;;;;;;18.00;13.75;;;;;;;;5014845;28;45390;-73
2021/11/12 06:52:39;;;;;;;;;21.00;14.25;;;;;;;;5021340;28;45299;-73
2021/11/12 06:55:05;;;;;;;;;18.75;15.00;;;;;;;;5023006;28;45338;-73
2021/11/12 06:57:31;;;;;;;;;18.75;12.00;;;;;;;;5023368;28;45377;-72
2021/11/12 06:59:56;;;;;;;;;16.25;14.25;;;;;;;;5004029;28;45602;-73
2021/11/12 07:02:24;;;;;;;;;22.00;14.33;;;;;;;;5018251;28;45292;-73
2021/11/12 07:04:49;;;;;;;;;26.25;19.25;;;;;;;;5014872;28;45710;-73
2021/11/12 07:07:15;;;;;;;;;21.00;15.67;;;;;;;;5022498;28;46016;-72
2021/11/12 07:09:40;;;;;;;;;15.50;12.00;;;;;;;;5022749;28;45468;-72
2021/11/12 07:12:06;;;;;;;;;19.50;13.50;;;;;;;;5022704;28;45832;-73
2021/11/12 07:14:31;;;;;;;;;16.00;14.00;;;;;;;;5018339;28;45297;-73
2021/11/12 07:16:56;;;;;;;;;18.25;14.50;;;;;;;;5019291;28;46465;-73
2021/11/12 07:19:22;;;;;;;;;18.25;16.25;;;;;;;;5028450;28;45433;-73
2021/11/12 07:21:47;;;;;;;;;16.00;16.00;;;;;;;;5028247;28;45392;-73
2021/11/12 07:24:13;;;;;;;;;23.00;14.33;;;;;;;;5022509;28;45441;-73
2021/11/12 07:26:38;;;;;;;;;20.00;16.75;;;;;;;;5019284;28;45530;-73
2021/11/12 07:29:04;;;;;;;;;21.00;18.33;;;;;;;;5018068;28;46063;-73
2021/11/12 07:31:30;;;;;;;;;22.25;15.25;;;;;;;;5028674;28;45517;-73
2021/11/12 07:33:59;;;;;;;;;14.50;14.50;;;;;;;;5026172;28;45540;-73
2021/11/12 07:36:25;;;;;;;;;19.25;15.00;;;;;;;;5022581;28;46232;-72
2021/11/12 07:41:39;;;;;;;;;25.50;15.75;;;;;;;;5021462;28;45596;-73
2021/11/12 07:44:32;;;;;;;;;21.00;16.50;;;;;;;;5034283;28;45479;-73
2021/11/12 07:49:22;;;;;;;;;22.00;15.67;;;;;;;;5026250;28;45296;-73
2021/11/12 07:51:49;;;;;;;;;18.00;15.33;;;;;;;;5025991;28;46348;-73
2021/11/12 07:54:14;;;;;;;;;17.50;15.25;;;;;;;;5028694;28;45458;-73
2021/11/12 07:56:39;;;;;;;;;21.00;15.67;;;;;;;;5026959;28;45331;-72
2021/11/12 07:59:05;;;;;;;;;24.67;17.67;;;;;;;;5036242;28;46053;-73
2021/11/12 08:01:30;;;;;;;;;22.25;16.25;;;;;;;;5018850;28;45517;-72
2021/11/12 08:03:57;;;;;;;;;20.00;16.00;;;;;;;;5024612;28;45523;-72
2021/11/12 08:06:26;;;;;;;;;24.25;18.50;;;;;;;;5007492;28;47263;-72
2021/11/12 08:09:02;;;;;;;;;25.25;17.75;;;;;;;;5024198;28;45442;-72
2021/11/12 08:11:33;;;;;;;;;16.50;12.50;;;;;;;;5019744;28;45473;-72
2021/11/12 08:14:13;;;;;;;;;22.75;18.50;;;;;;;;5031056;28;45572;-72
2021/11/12 08:19:14;;;;;;;;;16.75;14.50;;;;;;;;5024835;28;45434;-73
2021/11/12 08:21:47;;;;;;;;;23.50;17.75;;;;;;;;5029914;28;45554;-73
2021/11/12 08:24:30;;;;;;;;;23.50;14.25;;;;;;;;5025383;28;45697;-73
2021/11/12 08:30:10;;;;;;;;;24.00;15.25;;;;;;;;5026908;28;45283;-73
2021/11/12 08:37:29;;;;;;;;;32.25;15.50;;;;;;;;5024876;28;45526;-72
2021/11/12 08:40:48;;;;;;;;;24.00;17.00;;;;;;;;5010805;28;45936;-73
2021/11/12 08:42:45;;;;;;;;;22.00;17.25;;;;;;;;5010631;28;45539;-73
2021/11/12 08:45:18;;;;;;;;;28.75;21.25;;;;;;;;5026555;28;45386;-72
2021/11/12 08:47:46;;;;;;;;;25.75;22.00;;;;;;;;5028842;28;45994;-72
2021/11/12 08:50:17;;;;;;;;;28.75;25.00;;;;;;;;5032802;28;46160;-73
2021/11/12 08:52:44;;;;;;;;;33.75;24.25;;;;;;;;5023596;28;45512;-73
2021/11/12 08:55:10;;;;;;;;;25.50;22.75;;;;;;;;5024682;28;45455;-72
2021/11/12 08:57:35;;;;;;;;;29.25;24.50;;;;;;;;5024834;28;45295;-73
2021/11/12 09:00:04;;;;;;;;;36.00;32.00;;;;;;;;5023832;28;45542;-72
2021/11/12 09:02:29;;;;;;;;;31.50;27.75;;;;;;;;5019526;28;45446;-72
2021/11/12 09:04:54;;;;;;;;;40.33;28.67;;;;;;;;5032595;28;45571;-72
2021/11/12 09:07:20;;;;;;;;;31.50;23.75;;;;;;;;5025080;28;45927;-72
2021/11/12 09:09:47;;;;;;;;;27.00;24.00;;;;;;;;5024469;28;45513;-72
2021/11/12 09:12:14;;;;;;;;;30.50;26.50;;;;;;;;5024514;28;45512;-72
2021/11/12 09:14:44;;;;;;;;;41.75;29.00;;;;;;;;5020552;28;45544;-73
2021/11/12 09:17:10;;;;;;;;;35.75;28.00;;;;;;;;5019437;28;46218;-72
2021/11/12 09:19:44;;;;;;;;;32.25;26.75;;;;;;;;5007836;28;45305;-73
2021/11/12 09:22:09;;;;;;;;;31.50;25.50;;;;;;;;5023036;28;45554;-72
2021/11/12 09:24:34;;;;;;;;;36.67;29.67;;;;;;;;5031181;28;45509;-72
2021/11/12 09:27:00;;;;;;;;;36.67;28.33;;;;;;;;5023217;28;45647;-73
2021/11/12 09:29:25;;;;;;;;;33.33;24.33;;;;;;;;5033325;28;45593;-71
2021/11/12 09:31:51;;;;;;;;;35.33;28.00;;;;;;;;5026035;28;45540;-73
2021/11/12 09:34:16;;;;;;;;;32.00;25.50;;;;;;;;5028331;28;45498;-73
2021/11/12 09:36:41;;;;;;;;;40.00;33.00;;;;;;;;5034705;28;45457;-71
2021/11/12 09:39:06;;;;;;;;;34.67;29.00;;;;;;;;5029277;28;45426;-69
2021/11/12 09:41:32;;;;;;;;;34.75;26.50;;;;;;;;5031244;28;48024;-70
2021/11/12 09:43:57;;;;;;;;;41.33;36.33;;;;;;;;5035312;28;45454;-70
2021/11/12 09:46:22;;;;;;;;;44.67;30.00;;;;;;;;5024137;28;46021;-70
2021/11/12 09:48:48;;;;;;;;;33.00;26.00;;;;;;;;5023880;28;45440;-71
2021/11/12 09:51:13;;;;;;;;;36.50;31.00;;;;;;;;5023455;28;45433;-71
2021/11/12 09:53:39;;;;;;;;;39.00;32.00;;;;;;;;5018365;28;45539;-71
2021/11/12 09:56:07;;;;;;;;;19.50;16.00;;;;;;;;5033313;28;46346;-71
2021/11/12 09:58:33;;;;;;;;;35.50;26.75;;;;;;;;5032075;28;46097;-71
2021/11/12 10:00:59;;;;;;;;;31.75;26.50;;;;;;;;5030906;28;45752;-71
2021/11/12 10:03:32;;;;;;;;;41.75;32.75;;;;;;;;5022759;28;45517;-71
2021/11/12 10:05:57;;;;;;;;;42.50;31.75;;;;;;;;5026384;28;45489;-71
2021/11/12 10:08:31;;;;;;;;;39.50;30.25;;;;;;;;5025707;28;45777;-71
2021/11/12 10:11:00;;;;;;;;;32.50;24.25;;;;;;;;5019987;28;45323;-71
2021/11/12 10:13:29;;;;;;;;;36.50;31.50;;;;;;;;5033356;28;45634;-70
2021/11/12 10:16:42;;;;;;;;;36.75;27.00;;;;;;;;5026433;28;46219;-70
2021/11/12 10:19:05;;;;;;;;;37.25;28.00;;;;;;;;5022105;28;45474;-70
2021/11/12 10:21:37;;;;;;;;;38.75;26.00;;;;;;;;5024589;28;45856;-70
2021/11/12 10:24:04;;;;;;;;;67.00;51.25;;;;;;;;5032777;28;45587;-70
2021/11/12 10:26:30;;;;;;;;;29.50;24.25;;;;;;;;5034190;28;46855;-71
2021/11/12 10:28:59;;;;;;;;;29.75;24.00;;;;;;;;5027994;28;45926;-70
2021/11/12 10:31:25;;;;;;;;;28.25;26.25;;;;;;;;5028625;28;45312;-70
2021/11/12 10:33:51;;;;;;;;;35.75;27.75;;;;;;;;5027613;28;46270;-70
2021/11/12 10:36:16;;;;;;;;;36.25;25.25;;;;;;;;5022656;28;45959;-70
2021/11/12 10:38:42;;;;;;;;;36.25;27.00;;;;;;;;5020321;28;45690;-70
2021/11/12 10:41:23;;;;;;;;;28.00;28.00;;;;;;;;5025786;28;45491;-70
2021/11/12 10:43:50;;;;;;;;;33.25;27.00;;;;;;;;5030178;28;45307;-70
2021/11/12 10:46:15;;;;;;;;;35.50;28.25;;;;;;;;5033685;28;46192;-70
2021/11/12 10:48:41;;;;;;;;;36.00;29.25;;;;;;;;5023331;28;45493;-70
2021/11/12 10:51:22;;;;;;;;;36.50;30.25;;;;;;;;5021665;28;45465;-71
2021/11/12 10:53:50;;;;;;;;;27.75;27.75;;;;;;;;5030216;28;45291;-71
2021/11/12 10:56:15;;;;;;;;;94.25;71.25;;;;;;;;5032877;28;46113;-70
2021/11/12 10:58:56;;;;;;;;;40.00;35.75;;;;;;;;5033378;28;45483;-70
2021/11/12 11:01:35;;;;;;;;;31.00;25.75;;;;;;;;5032698;28;45556;-70
2021/11/12 11:04:17;;;;;;;;;40.75;30.75;;;;;;;;5033780;28;45428;-71
2021/11/12 11:06:42;;;;;;;;;48.25;33.25;;;;;;;;5024565;28;47339;-71
2021/11/12 11:09:07;;;;;;;;;45.67;36.00;;;;;;;;5033508;28;47546;-72
2021/11/12 11:11:39;;;;;;;;;42.00;33.00;;;;;;;;5033196;28;45360;-72
2021/11/12 11:14:05;;;;;;;;;44.25;37.25;;;;;;;;5026182;28;45424;-71
2021/11/12 11:16:35;;;;;;;;;48.00;37.00;;;;;;;;5027877;28;46361;-72
2021/11/12 11:19:01;;;;;;;;;42.00;36.50;;;;;;;;5027332;28;45992;-72
2021/11/12 11:21:27;;;;;;;;;51.75;37.00;;;;;;;;5033715;28;45354;-72
2021/11/12 11:23:55;;;;;;;;;41.00;37.75;;;;;;;;5034012;28;45481;-72
2021/11/12 11:26:40;;;;;;;;;44.00;36.25;;;;;;;;5033016;28;45587;-72
2021/11/12 11:29:06;;;;;;;;;36.75;31.75;;;;;;;;5029570;28;46213;-71
2021/11/12 11:31:32;;;;;;;;;43.50;35.25;;;;;;;;5034118;28;45332;-72
2021/11/12 11:33:58;;;;;;;;;36.75;28.75;;;;;;;;5033737;28;45525;-71
2021/11/12 11:36:25;;;;;;;;;51.50;37.50;;;;;;;;5033121;28;46212;-72
2021/11/12 11:38:51;;;;;;;;;44.00;37.50;;;;;;;;5033245;28;45819;-72
2021/11/12 11:41:18;;;;;;;;;47.25;32.00;;;;;;;;5033129;28;45366;-71
2021/11/12 11:43:43;;;;;;;;;41.25;37.75;;;;;;;;5027046;28;45379;-71
2021/11/12 11:46:12;;;;;;;;;42.25;34.25;;;;;;;;5030546;28;46016;-71
2021/11/12 11:48:39;;;;;;;;;43.75;35.50;;;;;;;;5032947;28;45497;-71
2021/11/12 11:51:05;;;;;;;;;47.75;35.50;;;;;;;;5033455;28;45367;-72
2021/11/12 11:53:36;;;;;;;;;41.25;35.75;;;;;;;;5017342;28;45488;-72
2021/11/12 11:56:19;;;;;;;;;39.75;34.75;;;;;;;;5029605;28;46168;-72
2021/11/12 11:58:49;;;;;;;;;54.00;37.50;;;;;;;;5019849;28;45860;-72
2021/11/12 12:01:27;;;;;;;;;49.00;38.50;;;;;;;;5027262;28;45406;-72
2021/11/12 12:04:12;;;;;;;;;42.50;34.75;;;;;;;;5026487;28;45394;-72
2021/11/12 12:06:39;;;;;;;;;45.50;37.50;;;;;;;;5020073;28;46975;-72
2021/11/12 12:09:09;;;;;;;;;46.25;37.25;;;;;;;;5032934;28;45973;-72
2021/11/12 12:11:35;;;;;;;;;46.25;35.00;;;;;;;;5017906;28;45464;-72
2021/11/12 12:14:19;;;;;;;;;54.00;36.00;;;;;;;;5018190;28;45584;-71
2021/11/12 12:17:03;;;;;;;;;42.75;37.50;;;;;;;;5012947;28;47008;-69
2021/11/12 12:19:45;;;;;;;;;46.75;37.25;;;;;;;;5019132;28;45404;-70
2021/11/12 12:30:51;;;;;;;;;47.25;36.75;;;;;;;;5018944;28;45536;-71
2021/11/12 13:20:22;;;;;;;;;44.00;38.50;;;;;;;;5003917;28;45510;-71
2021/11/12 13:25:35;;;;;;;;;43.50;36.00;;;;;;;;5007014;28;45394;-71
2021/11/12 13:28:07;;;;;;;;;47.00;39.00;;;;;;;;5011960;28;45320;-71
2021/11/12 13:30:32;;;;;;;;;25.75;19.75;;;;;;;;5014385;28;45378;-72
2021/11/12 13:32:57;;;;;;;;;48.00;37.00;;;;;;;;5016102;28;45522;-71
2021/11/12 13:35:34;;;;;;;;;48.67;37.67;;;;;;;;5001087;28;47207;-71
2021/11/12 13:37:59;;;;;;;;;55.00;39.25;;;;;;;;5015513;28;45364;-71
2021/11/12 13:40:28;;;;;;;;;48.00;39.25;;;;;;;;5016801;28;45286;-71
2021/11/12 13:42:54;;;;;;;;;50.00;37.25;;;;;;;;5007811;28;45577;-72
2021/11/12 13:45:23;;;;;;;;;52.00;38.67;;;;;;;;5008796;28;46320;-71
2021/11/12 13:47:59;;;;;;;;;46.75;37.00;;;;;;;;5002315;28;45847;-71
2021/11/12 13:50:25;;;;;;;;;55.25;39.25;;;;;;;;5014871;28;45386;-72
2021/11/12 13:52:51;;;;;;;;;43.00;36.50;;;;;;;;5008712;28;45284;-71
2021/11/12 13:55:16;;;;;;;;;48.00;40.75;;;;;;;;5004542;28;46364;-71
2021/11/12 13:57:55;;;;;;;;;45.75;38.00;;;;;;;;5006620;28;45463;-70
2021/11/12 14:00:26;;;;;;;;;50.25;40.50;;;;;;;;5004408;28;45529;-71
2021/11/12 14:03:22;;;;;;;;;50.25;39.00;;;;;;;;5012777;28;45358;-71
2021/11/12 14:05:58;;;;;;;;;41.50;36.75;;;;;;;;5001641;28;46205;-71
2021/11/12 14:08:32;;;;;;;;;46.75;37.25;;;;;;;;5030403;28;45984;-71
2021/11/12 14:10:57;;;;;;;;;49.75;39.25;;;;;;;;5025351;28;45236;-71
2021/11/12 14:13:24;;;;;;;;;50.67;38.00;;;;;;;;5031653;28;45480;-71
2021/11/12 14:16:01;;;;;;;;;42.00;36.50;;;;;;;;5028051;28;46546;-71
2021/11/12 14:20:55;;;;;;;;;51.75;37.25;;;;;;;;5026835;28;45414;-71
2021/11/12 14:23:29;;;;;;;;;51.00;37.00;;;;;;;;5030067;28;45885;-71
2021/11/12 14:36:47;;;;;;;;;33.67;31.33;;;;;;;;4952839;28;45424;-70
2021/11/12 14:42:45;;;;;;;;;46.75;34.00;;;;;;;;4944058;28;45394;-69
2021/11/12 14:47:40;;;;;;;;;43.25;37.25;;;;;;;;4954541;28;45892;-69
2021/11/12 14:53:20;;;;;;;;;45.50;37.25;;;;;;;;4945988;28;45313;-69
2021/11/12 14:55:48;;;;;;;;;51.00;38.00;;;;;;;;4932340;28;45457;-69
2021/11/12 14:58:14;;;;;;;;;40.75;34.00;;;;;;;;4953474;28;46882;-69
2021/11/12 15:00:40;;;;;;;;;40.75;36.00;;;;;;;;5015484;28;45545;-69
2021/11/12 15:03:06;;;;;;;;;47.25;38.00;;;;;;;;5031880;28;45469;-70
2021/11/12 15:05:31;;;;;;;;;46.00;36.75;;;;;;;;5018476;28;45368;-69
2021/11/12 15:08:10;;;;;;;;;47.50;38.00;;;;;;;;5019008;28;46970;-69
2021/11/12 15:10:35;;;;;;;;;51.50;38.25;;;;;;;;5028600;28;45911;-69
2021/11/12 15:13:00;;;;;;;;;42.75;37.00;;;;;;;;5034050;28;45358;-69
2021/11/12 15:15:25;;;;;;;;;51.00;37.67;;;;;;;;5031097;28;45272;-68
2021/11/12 15:17:53;;;;;;;;;48.00;37.25;;;;;;;;5019926;28;45627;-68
2021/11/12 15:20:19;;;;;;;;;46.25;37.75;;;;;;;;5016541;28;46063;-69
2021/11/12 15:31:13;;;;;;;;;47.50;35.75;;;;;;;;5010664;28;45896;-69
2021/11/12 15:33:39;;;;;;;;;57.50;44.75;;;;;;;;5011168;28;45359;-69
2021/11/12 15:36:08;;;;;;;;;55.25;42.25;;;;;;;;5011099;28;45568;-69
2021/11/12 15:38:38;;;;;;;;;54.00;41.25;;;;;;;;4998870;28;46116;-69
2021/11/12 15:41:17;;;;;;;;;54.25;41.00;;;;;;;;5010753;28;45379;-69
2021/11/12 15:46:16;;;;;;;;;57.50;45.00;;;;;;;;5011102;28;45467;-69
2021/11/12 15:48:43;;;;;;;;;49.50;39.00;;;;;;;;5007277;28;47902;-69
2021/11/12 15:56:55;;;;;;;;;50.50;38.25;;;;;;;;4996377;28;45533;-68
2021/11/12 15:59:28;;;;;;;;;54.50;43.00;;;;;;;;5012643;28;47010;-69
2021/11/12 16:09:52;;;;;;;;;54.00;42.00;;;;;;;;5026825;28;45595;-70
2021/11/12 16:27:22;;;;;;;;;51.50;41.00;;;;;;;;5036258;28;45230;-70
2021/11/12 16:29:50;;;;;;;;;50.50;40.25;;;;;;;;5027182;28;46089;-70
2021/11/12 16:35:01;;;;;;;;;58.50;45.50;;;;;;;;5034022;28;45528;-69
2021/11/12 16:37:28;;;;;;;;;57.25;43.25;;;;;;;;5033849;28;45513;-70
2021/11/12 16:40:04;;;;;;;;;67.00;49.25;;;;;;;;5027773;28;45892;-70
2021/11/12 16:42:56;;;;;;;;;49.75;41.25;;;;;;;;5025678;28;45465;-70
2021/11/12 16:48:10;;;;;;;;;50.75;41.50;;;;;;;;5032097;28;45351;-70
2021/11/12 16:50:54;;;;;;;;;62.00;47.75;;;;;;;;5035410;28;46080;-69
2021/11/12 17:04:06;;;;;;;;;52.50;42.25;;;;;;;;4980555;28;45641;-68
2021/11/12 17:06:39;;;;;;;;;59.75;46.50;;;;;;;;4957349;28;45899;-72
2021/11/12 17:11:56;;;;;;;;;61.50;46.25;;;;;;;;4971631;28;46262;-71
2021/11/12 17:14:27;;;;;;;;;59.00;47.00;;;;;;;;4977331;28;46018;-72
2021/11/12 17:17:25;;;;;;;;;59.75;46.75;;;;;;;;4980445;28;45702;-71
2021/11/12 17:47:16;;;;;;;;;70.00;51.00;;;;;;;;4915147;28;46177;-71
2021/11/12 17:50:02;;;;;;;;;62.67;50.00;;;;;;;;4915835;28;45477;-70
2021/11/12 18:03:25;;;;;;;;;64.00;47.00;;;;;;;;4984833;28;45400;-71
2021/11/12 18:13:55;;;;;;;;;62.00;47.75;;;;;;;;5021479;28;45374;-71
2021/11/12 18:22:36;;;;;;;;;49.50;39.00;;;;;;;;5031662;28;45516;-71
2021/11/12 21:46:17;;;;;;;;;38.50;34.75;;;;;;;;5025372;28;70043;-70
2021/11/12 21:48:44;;;;;;;;;37.50;28.50;;;;;;;;5024063;28;45759;-70
2021/11/12 21:51:12;;;;;;;;;41.00;30.25;;;;;;;;5030419;28;45487;-70
2021/11/12 21:53:37;;;;;;;;;37.50;31.75;;;;;;;;5028633;28;45699;-70
2021/11/12 21:56:03;;;;;;;;;36.25;30.50;;;;;;;;5035433;28;45531;-70
2021/11/12 21:58:30;;;;;;;;;41.00;29.25;;;;;;;;5029710;28;46459;-70
2021/11/12 22:00:57;;;;;;;;;39.00;31.50;;;;;;;;5027670;28;45544;-70
2021/11/12 22:03:23;;;;;;;;;34.75;26.50;;;;;;;;5030212;28;45485;-70
2021/11/12 22:05:49;;;;;;;;;37.25;31.25;;;;;;;;5032272;28;45551;-69
2021/11/12 22:08:14;;;;;;;;;36.50;34.75;;;;;;;;5030113;28;45493;-70
2021/11/12 22:10:39;;;;;;;;;44.33;33.00;;;;;;;;5030886;28;45473;-70
2021/11/12 22:13:04;;;;;;;;;35.00;31.33;;;;;;;;5031635;28;45584;-70
2021/11/12 22:15:30;;;;;;;;;38.67;30.00;;;;;;;;5012670;28;45387;-70
2021/11/12 22:17:55;;;;;;;;;40.00;33.50;;;;;;;;5031128;28;45477;-70
2021/11/12 22:20:21;;;;;;;;;42.00;30.25;;;;;;;;5028425;28;45402;-70
2021/11/12 22:22:46;;;;;;;;;36.50;30.25;;;;;;;;5026760;28;45535;-70
2021/11/12 22:25:12;;;;;;;;;34.25;28.75;;;;;;;;5031134;28;45788;-70
2021/11/12 22:27:37;;;;;;;;;30.75;28.00;;;;;;;;5030658;28;47902;-70
2021/11/12 22:30:04;;;;;;;;;42.00;26.00;;;;;;;;5023167;28;45727;-70
2021/11/12 22:32:29;;;;;;;;;41.50;32.00;;;;;;;;5031409;28;45605;-70
2021/11/12 22:34:55;;;;;;;;;37.67;28.33;;;;;;;;5022818;28;45467;-70
2021/11/12 22:37:21;;;;;;;;;40.25;32.50;;;;;;;;5029955;28;47356;-70
2021/11/12 22:39:46;;;;;;;;;43.00;34.33;;;;;;;;5030585;28;45524;-70
2021/11/12 22:42:12;;;;;;;;;40.67;35.00;;;;;;;;5030772;28;45489;-70
2021/11/12 22:44:37;;;;;;;;;41.75;35.00;;;;;;;;5031018;28;45510;-70
2021/11/12 22:47:03;;;;;;;;;37.75;35.75;;;;;;;;5013643;28;47141;-70
2021/11/12 22:49:28;;;;;;;;;41.50;33.50;;;;;;;;5023503;28;45576;-69
2021/11/12 22:51:53;;;;;;;;;40.50;35.00;;;;;;;;5021092;28;45473;-70
2021/11/12 22:54:19;;;;;;;;;38.33;32.00;;;;;;;;5030029;28;45574;-70
2021/11/12 22:56:44;;;;;;;;;46.33;33.67;;;;;;;;5020439;28;46172;-69
2021/11/12 22:59:09;;;;;;;;;41.00;34.75;;;;;;;;5031205;28;45330;-70
2021/11/12 23:01:35;;;;;;;;;36.50;34.25;;;;;;;;5019033;28;45530;-70
2021/11/12 23:04:00;;;;;;;;;43.25;34.50;;;;;;;;5020113;28;45473;-71
2021/11/12 23:06:26;;;;;;;;;40.25;31.50;;;;;;;;5027940;28;45458;-71
2021/11/12 23:08:51;;;;;;;;;46.00;33.50;;;;;;;;5016854;28;45470;-70
2021/11/12 23:11:17;;;;;;;;;41.25;35.25;;;;;;;;5015256;28;45395;-71
2021/11/12 23:13:43;;;;;;;;;38.25;31.75;;;;;;;;5028492;28;46711;-71
2021/11/12 23:16:09;;;;;;;;;47.25;36.75;;;;;;;;5028002;28;45968;-71
2021/11/12 23:18:35;;;;;;;;;36.50;29.50;;;;;;;;5026503;28;45620;-71
2021/11/12 23:21:00;;;;;;;;;50.00;36.50;;;;;;;;5018672;28;45452;-71
2021/11/12 23:23:25;;;;;;;;;40.50;33.75;;;;;;;;5027389;28;46781;-71
2021/11/12 23:25:51;;;;;;;;;42.00;33.75;;;;;;;;5022574;28;46365;-71
2021/11/12 23:28:16;;;;;;;;;45.50;37.00;;;;;;;;5019123;28;45396;-71
2021/11/12 23:30:41;;;;;;;;;43.00;33.75;;;;;;;;5019669;28;45712;-71
2021/11/12 23:33:07;;;;;;;;;43.00;34.25;;;;;;;;5019622;28;45588;-71
2021/11/12 23:35:33;;;;;;;;;41.50;35.25;;;;;;;;5029623;28;45518;-71
2021/11/12 23:37:58;;;;;;;;;40.25;31.00;;;;;;;;5026897;28;45488;-71
2021/11/12 23:40:23;;;;;;;;;39.67;35.00;;;;;;;;5025322;28;45490;-71
2021/11/12 23:42:50;;;;;;;;;38.67;28.67;;;;;;;;5025173;28;45388;-71
2021/11/12 23:45:16;;;;;;;;;34.50;28.00;;;;;;;;5019136;28;46276;-71
2021/11/12 23:47:41;;;;;;;;;39.25;31.00;;;;;;;;5028904;28;45418;-71
2021/11/12 23:50:07;;;;;;;;;42.25;29.50;;;;;;;;5014914;28;45488;-71
2021/11/12 23:52:32;;;;;;;;;32.75;30.50;;;;;;;;5025456;28;45632;-71
2021/11/12 23:54:58;;;;;;;;;46.75;32.50;;;;;;;;5019733;28;46050;-71
2021/11/12 23:57:23;;;;;;;;;34.50;30.25;;;;;;;;5024009;28;45466;-71
2021/11/12 23:59:48;;;;;;;;;31.33;26.67;;;;;;;;5016492;28;45529;-71
